createdAt,value
2018-09-14T00:00:29.140Z,22.30
2018-09-14T00:02:57.238Z,24.92
2018-09-14T00:05:25.372Z,26.50
2018-09-14T00:07:53.502Z,24.95
2018-09-14T00:10:21.646Z,23.13
2018-09-14T00:12:49.779Z,24.35
2018-09-14T00:15:17.879Z,25.70
2018-09-14T00:17:46.017Z,25.75
2018-09-14T00:20:14.161Z,24.98
2018-09-14T00:22:42.307Z,24.63
2018-09-14T00:25:10.412Z,30.00
2018-09-14T00:27:38.507Z,35.10
2018-09-14T00:30:06.604Z,26.05
2018-09-14T00:32:34.776Z,28.60
2018-09-14T00:35:02.892Z,26.85
2018-09-14T00:37:31.028Z,25.72
2018-09-14T00:39:59.189Z,28.12
2018-09-14T00:42:27.301Z,25.55
2018-09-14T00:44:55.521Z,29.23
2018-09-14T00:47:23.677Z,25.12
2018-09-14T00:49:51.760Z,27.77
2018-09-14T00:52:19.942Z,33.78
2018-09-14T00:54:48.055Z,35.30
2018-09-14T00:57:16.180Z,27.30
2018-09-14T00:59:44.338Z,28.35
2018-09-14T01:02:12.465Z,26.23
2018-09-14T01:04:40.629Z,30.80
2018-09-14T01:07:09.005Z,30.00
2018-09-14T01:09:37.138Z,33.88
2018-09-14T01:12:05.267Z,30.13
2018-09-14T01:14:33.420Z,27.35
2018-09-14T01:17:01.555Z,29.12
2018-09-14T01:19:29.709Z,23.38
2018-09-14T01:21:57.855Z,25.70
2018-09-14T01:24:26.145Z,26.70
2018-09-14T01:26:54.264Z,33.08
2018-09-14T01:29:22.356Z,39.40
2018-09-14T01:31:50.528Z,33.90
2018-09-14T01:34:18.652Z,27.52
2018-09-14T01:36:46.817Z,30.30
2018-09-14T01:39:14.912Z,28.27
2018-09-14T01:41:43.079Z,34.38
2018-09-14T01:44:11.179Z,25.90
2018-09-14T01:46:39.395Z,24.15
2018-09-14T01:49:07.801Z,30.70
2018-09-14T01:51:36.121Z,31.40
2018-09-14T01:54:04.341Z,25.02
2018-09-14T01:56:32.472Z,32.87
2018-09-14T01:59:00.620Z,34.97
2018-09-14T02:01:28.751Z,33.38
2018-09-14T02:03:56.876Z,30.00
2018-09-14T02:06:26.236Z,40.27
2018-09-14T02:08:54.625Z,37.53
2018-09-14T02:11:22.757Z,31.17
2018-09-14T02:13:50.897Z,28.23
2018-09-14T02:16:19.108Z,35.43
2018-09-14T02:18:47.266Z,30.48
2018-09-14T02:21:15.519Z,33.60
2018-09-14T02:23:43.578Z,43.57
2018-09-14T02:26:11.722Z,43.75
2018-09-14T02:28:39.890Z,43.45
2018-09-14T02:31:08.152Z,41.75
2018-09-14T02:33:36.336Z,44.77
2018-09-14T02:36:04.471Z,38.45
2018-09-14T02:38:32.860Z,44.80
2018-09-14T02:41:01.005Z,34.25
2018-09-14T02:43:29.201Z,32.50
2018-09-14T02:45:57.299Z,40.40
2018-09-14T02:48:25.458Z,35.40
2018-09-14T02:50:53.601Z,43.95
2018-09-14T02:53:21.904Z,41.83
2018-09-14T02:55:50.049Z,34.63
2018-09-14T02:58:18.280Z,39.83
2018-09-14T03:00:46.423Z,39.40
2018-09-14T03:03:14.527Z,38.13
2018-09-14T03:05:42.658Z,30.50
2018-09-14T03:08:10.751Z,31.20
2018-09-14T03:10:38.862Z,35.08
2018-09-14T03:13:07.080Z,37.95
2018-09-14T03:15:35.185Z,35.73
2018-09-14T03:18:03.302Z,37.63
2018-09-14T03:20:31.473Z,29.50
2018-09-14T03:22:59.783Z,29.72
2018-09-14T03:25:27.895Z,34.10
2018-09-14T03:27:56.073Z,29.70
2018-09-14T03:30:24.159Z,29.52
2018-09-14T03:32:52.292Z,25.40
2018-09-14T03:35:20.462Z,34.33
2018-09-14T03:37:48.604Z,29.40
2018-09-14T03:40:16.766Z,38.15
2018-09-14T03:42:44.901Z,40.38
2018-09-14T03:45:13.049Z,33.65
2018-09-14T03:47:41.179Z,27.25
2018-09-14T03:50:09.404Z,36.25
2018-09-14T03:52:37.548Z,36.23
2018-09-14T03:55:05.844Z,32.75
2018-09-14T03:57:34.046Z,32.83
2018-09-14T04:00:02.140Z,43.20
2018-09-14T04:02:30.285Z,42.95
2018-09-14T04:04:58.442Z,45.90
2018-09-14T04:07:26.537Z,35.90
2018-09-14T04:09:54.710Z,30.27
2018-09-14T04:12:22.828Z,41.05
2018-09-14T04:14:50.963Z,35.68
2018-09-14T04:17:19.093Z,31.15
2018-09-14T04:19:47.219Z,36.50
2018-09-14T04:22:15.385Z,41.37
2018-09-14T04:24:43.511Z,42.25
2018-09-14T04:27:11.599Z,32.85
2018-09-14T04:29:39.707Z,34.85
2018-09-14T04:32:07.862Z,27.17
2018-09-14T04:34:35.995Z,30.52
2018-09-14T04:37:04.192Z,35.35
2018-09-14T04:39:32.341Z,29.63
2018-09-14T04:42:00.459Z,39.78
2018-09-14T04:44:28.547Z,32.75
2018-09-14T04:46:56.709Z,28.60
2018-09-14T04:49:24.848Z,39.92
2018-09-14T04:51:53.011Z,36.90
2018-09-14T04:54:21.161Z,29.80
2018-09-14T04:56:49.301Z,33.25
2018-09-14T04:59:17.428Z,27.02
2018-09-14T05:01:45.576Z,27.45
2018-09-14T05:04:13.920Z,26.33
2018-09-14T05:06:42.026Z,27.90
2018-09-14T05:09:10.103Z,27.10
2018-09-14T05:11:38.269Z,24.75
2018-09-14T05:14:07.127Z,19.95
2018-09-14T05:16:35.521Z,26.95
2018-09-14T05:19:03.669Z,25.10
2018-09-14T05:21:31.759Z,23.73
2018-09-14T05:24:00.062Z,21.97
2018-09-14T05:26:28.297Z,19.52
2018-09-14T05:28:56.432Z,22.35
2018-09-14T05:31:24.604Z,26.25
2018-09-14T05:33:52.789Z,25.23
2018-09-14T05:36:21.019Z,19.35
2018-09-14T05:38:49.096Z,20.02
2018-09-14T05:41:17.328Z,20.68
2018-09-14T05:43:45.851Z,18.40
2018-09-14T05:46:14.086Z,19.45
2018-09-14T05:48:42.238Z,25.60
2018-09-14T05:51:10.425Z,18.95
2018-09-14T05:53:39.105Z,19.98
2018-09-14T05:56:07.243Z,23.55
2018-09-14T05:58:35.341Z,18.65
2018-09-14T06:01:03.508Z,26.00
2018-09-14T06:03:31.708Z,26.52
2018-09-14T06:05:59.827Z,21.07
2018-09-14T06:08:28.220Z,20.77
2018-09-14T06:10:56.355Z,21.35
2018-09-14T06:13:24.470Z,17.62
2018-09-14T06:15:52.767Z,17.05
2018-09-14T06:18:20.922Z,26.62
2018-09-14T06:20:49.021Z,17.65
2018-09-14T06:23:17.160Z,24.67
2018-09-14T06:25:45.339Z,20.72
2018-09-14T06:28:13.452Z,17.37
2018-09-14T06:30:41.591Z,19.23
2018-09-14T06:33:09.761Z,18.17
2018-09-14T06:35:38.126Z,18.27
2018-09-14T06:38:06.337Z,18.07
2018-09-14T06:40:34.448Z,15.93
2018-09-14T06:43:02.620Z,16.90
2018-09-14T06:45:30.817Z,20.32
2018-09-14T06:47:58.967Z,14.65
2018-09-14T06:50:27.066Z,17.77
2018-09-14T06:52:55.241Z,21.12
2018-09-14T06:55:23.436Z,25.60
2018-09-14T06:57:51.606Z,17.20
2018-09-14T07:00:19.867Z,24.07
2018-09-14T07:02:47.853Z,23.60
2018-09-14T07:05:16.000Z,33.28
2018-09-14T07:07:44.137Z,25.27
2018-09-14T07:10:12.450Z,22.60
2018-09-14T07:12:40.592Z,20.40
2018-09-14T07:15:08.740Z,27.07
2018-09-14T07:17:37.001Z,22.10
2018-09-14T07:20:05.111Z,23.52
2018-09-14T07:22:33.210Z,28.35
2018-09-14T07:25:01.355Z,28.80
2018-09-14T07:27:29.504Z,28.35
2018-09-14T07:29:57.663Z,35.17
2018-09-14T07:32:25.845Z,32.85
2018-09-14T07:34:54.028Z,26.85
2018-09-14T07:37:22.154Z,24.50
2018-09-14T07:39:50.291Z,26.85
2018-09-14T07:42:18.394Z,25.08
2018-09-14T07:44:46.566Z,23.67
2018-09-14T07:47:14.676Z,29.25
2018-09-14T07:49:42.853Z,25.10
2018-09-14T07:52:11.012Z,23.02
2018-09-14T07:54:40.201Z,26.97
2018-09-14T07:57:08.365Z,29.75
2018-09-14T07:59:36.546Z,29.00
2018-09-14T08:02:04.713Z,28.17
2018-09-14T08:04:32.874Z,24.98
2018-09-14T08:07:01.025Z,23.77
2018-09-14T08:09:29.151Z,35.65
2018-09-14T08:11:57.339Z,26.90
2018-09-14T08:14:25.485Z,25.02
2018-09-14T08:16:53.654Z,18.70
2018-09-14T08:19:21.826Z,23.75
2018-09-14T08:21:50.220Z,20.60
2018-09-14T08:24:18.173Z,19.45
2018-09-14T08:26:46.352Z,21.55
2018-09-14T08:29:14.469Z,22.05
2018-09-14T08:31:42.692Z,24.55
2018-09-14T08:34:10.805Z,25.37
2018-09-14T08:36:38.966Z,18.17
2018-09-14T08:39:08.888Z,16.70
2018-09-14T08:41:37.065Z,21.02
2018-09-14T08:44:05.337Z,17.77
2018-09-14T08:46:33.457Z,17.65
2018-09-14T08:49:01.600Z,20.90
2018-09-14T08:51:29.857Z,22.27
2018-09-14T08:53:58.040Z,18.15
2018-09-14T08:56:26.181Z,17.92
2018-09-14T08:58:54.353Z,17.67
2018-09-14T09:01:22.600Z,23.07
2018-09-14T09:03:50.758Z,20.70
2018-09-14T09:06:18.847Z,28.23
2018-09-14T09:08:46.964Z,25.17
2018-09-14T09:11:15.126Z,22.82
2018-09-14T09:13:43.313Z,22.62
2018-09-14T09:16:11.453Z,23.05
2018-09-14T09:18:39.596Z,23.92
2018-09-14T09:21:07.800Z,22.75
2018-09-14T09:23:35.903Z,27.77
2018-09-14T09:26:04.052Z,28.70
2018-09-14T09:28:32.665Z,21.77
2018-09-14T09:31:01.083Z,27.13
2018-09-14T09:33:29.200Z,29.92
2018-09-14T09:35:57.294Z,20.57
2018-09-14T09:38:25.469Z,27.33
2018-09-14T09:40:53.577Z,21.93
2018-09-14T09:43:21.762Z,24.17
2018-09-14T09:45:49.754Z,16.93
2018-09-14T09:48:17.875Z,20.40
2018-09-14T09:50:46.032Z,22.00
2018-09-14T09:53:14.185Z,19.17
2018-09-14T09:55:42.254Z,16.50
2018-09-14T09:58:10.389Z,17.00
2018-09-14T10:00:42.482Z,17.67
2018-09-14T10:03:16.259Z,21.47
2018-09-14T10:05:49.901Z,19.43
2018-09-14T10:08:18.107Z,24.00
2018-09-14T10:10:46.221Z,20.37
2018-09-14T10:13:14.386Z,19.53
2018-09-14T10:15:42.492Z,22.73
2018-09-14T10:18:10.606Z,19.50
2018-09-14T10:20:38.742Z,18.03
2018-09-14T10:23:06.962Z,21.00
2018-09-14T10:25:35.079Z,20.57
2018-09-14T10:28:03.226Z,18.27
2018-09-14T10:30:31.349Z,20.10
2018-09-14T10:32:59.475Z,20.03
2018-09-14T10:35:27.643Z,18.63
2018-09-14T10:37:55.896Z,23.90
2018-09-14T10:40:24.102Z,20.10
2018-09-14T10:42:52.665Z,18.20
2018-09-14T10:45:20.787Z,20.50
2018-09-14T10:47:48.886Z,15.13
2018-09-14T10:50:17.030Z,18.67
2018-09-14T10:52:45.082Z,17.70
2018-09-14T10:55:13.299Z,14.10
2018-09-14T10:57:41.408Z,18.03
2018-09-14T11:00:09.554Z,15.47
2018-09-14T11:02:37.706Z,15.13
2018-09-14T11:05:05.834Z,17.60
2018-09-14T11:07:33.946Z,14.73
2018-09-14T11:10:02.227Z,15.70
2018-09-14T11:12:30.245Z,20.20
2018-09-14T11:14:58.381Z,16.53
2018-09-14T11:17:26.495Z,14.10
2018-09-14T11:19:54.615Z,14.83
2018-09-14T11:22:22.694Z,19.60
2018-09-14T11:24:51.065Z,17.90
2018-09-14T11:27:19.001Z,17.20
2018-09-14T11:29:47.071Z,16.00
2018-09-14T11:32:15.266Z,15.00
2018-09-14T11:34:43.342Z,17.73
2018-09-14T11:37:11.448Z,17.67
2018-09-14T11:39:39.579Z,17.90
2018-09-14T11:42:07.694Z,16.80
2018-09-14T11:44:35.829Z,14.57
2018-09-14T11:47:03.948Z,15.40
2018-09-14T11:49:32.112Z,16.37
2018-09-14T11:52:00.223Z,13.70
2018-09-14T11:54:28.334Z,14.50
2018-09-14T11:56:56.497Z,18.67
2018-09-14T11:59:24.729Z,16.37
2018-09-14T12:01:52.976Z,16.90
2018-09-14T12:04:21.352Z,15.27
2018-09-14T12:06:49.457Z,18.10
2018-09-14T12:09:17.511Z,17.17
2018-09-14T12:11:45.637Z,20.77
2018-09-14T12:14:13.783Z,13.70
2018-09-14T12:16:41.980Z,14.67
2018-09-14T12:19:10.190Z,15.80
2018-09-14T12:21:38.280Z,14.50
2018-09-14T12:24:06.358Z,13.83
2018-09-14T12:26:34.474Z,15.80
2018-09-14T12:29:02.629Z,13.40
2018-09-14T12:31:30.749Z,14.10
2018-09-14T12:33:58.870Z,15.33
2018-09-14T12:36:26.994Z,18.77
2018-09-14T12:38:55.101Z,17.47
2018-09-14T12:41:23.221Z,16.80
2018-09-14T12:43:51.324Z,19.20
2018-09-14T12:46:19.399Z,14.33
2018-09-14T12:48:47.580Z,18.83
2018-09-14T12:51:15.641Z,16.17
2018-09-14T12:53:43.738Z,18.70
2018-09-14T12:56:11.887Z,17.73
2018-09-14T12:58:39.993Z,16.17
2018-09-14T13:01:08.096Z,16.80
2018-09-14T13:03:36.212Z,16.70
2018-09-14T13:06:04.354Z,16.47
2018-09-14T13:08:32.490Z,15.77
2018-09-14T13:11:00.637Z,14.30
2018-09-14T13:13:28.782Z,18.90
2018-09-14T13:15:56.885Z,17.43
2018-09-14T13:18:24.978Z,16.40
2018-09-14T13:20:53.067Z,16.70
2018-09-14T13:23:21.199Z,16.63
2018-09-14T13:25:49.395Z,14.73
2018-09-14T13:28:17.480Z,17.53
2018-09-14T13:30:45.645Z,15.00
2018-09-14T13:33:13.764Z,13.67
2018-09-14T13:35:41.867Z,14.23
2018-09-14T13:38:09.982Z,13.53
2018-09-14T13:40:38.123Z,15.77
2018-09-14T13:43:06.176Z,15.60
2018-09-14T13:45:34.289Z,15.07
2018-09-14T13:48:02.415Z,13.40
2018-09-14T13:50:30.572Z,16.00
2018-09-14T13:52:58.880Z,13.53
2018-09-14T13:55:26.956Z,11.60
2018-09-14T13:57:55.117Z,13.37
2018-09-14T14:00:23.285Z,11.63
2018-09-14T14:02:51.488Z,13.00
2018-09-14T14:05:19.634Z,12.93
2018-09-14T14:07:47.912Z,15.90
2018-09-14T14:10:16.085Z,14.90
2018-09-14T14:12:44.221Z,14.93
2018-09-14T14:15:12.327Z,14.70
2018-09-14T14:17:40.509Z,13.33
2018-09-14T14:20:08.509Z,13.97
2018-09-14T14:22:36.733Z,13.87
2018-09-14T14:25:04.805Z,11.90
2018-09-14T14:27:32.892Z,13.07
2018-09-14T14:30:00.956Z,11.47
2018-09-14T14:32:29.106Z,13.87
2018-09-14T14:34:58.765Z,13.60
2018-09-14T14:37:26.909Z,12.60
2018-09-14T14:39:54.994Z,13.37
2018-09-14T14:42:23.148Z,11.70
2018-09-14T14:44:51.249Z,13.33
2018-09-14T14:47:19.359Z,10.60
2018-09-14T14:49:47.496Z,11.10
2018-09-14T14:52:15.621Z,11.60
2018-09-14T14:54:43.697Z,12.70
2018-09-14T14:57:11.844Z,9.67
2018-09-14T14:59:39.945Z,11.83
2018-09-14T15:02:08.055Z,13.30
2018-09-14T15:04:36.171Z,10.77
2018-09-14T15:07:04.255Z,11.80
2018-09-14T15:09:32.457Z,9.80
2018-09-14T15:12:00.658Z,13.33
2018-09-14T15:14:28.732Z,9.33
2018-09-14T15:16:56.971Z,11.37
2018-09-14T15:19:25.160Z,11.00
2018-09-14T15:21:53.293Z,11.17
2018-09-14T15:24:21.447Z,9.87
2018-09-14T15:26:49.547Z,9.10
2018-09-14T15:29:18.655Z,8.40
2018-09-14T15:31:47.125Z,7.80
2018-09-14T15:34:15.289Z,8.40
2018-09-14T15:36:43.403Z,9.40
2018-09-14T15:39:12.780Z,10.40
2018-09-14T15:41:41.175Z,7.13
2018-09-14T15:44:09.271Z,11.27
2018-09-14T15:46:37.460Z,8.87
2018-09-14T15:49:05.600Z,9.60
2018-09-14T15:51:33.666Z,9.20
2018-09-14T15:54:01.842Z,8.40
2018-09-14T15:56:30.246Z,9.60
2018-09-14T15:58:58.409Z,9.50
2018-09-14T16:01:26.529Z,10.07
2018-09-14T16:03:54.638Z,10.00
2018-09-14T16:06:22.898Z,9.37
2018-09-14T16:08:51.259Z,10.13
2018-09-14T16:11:19.428Z,9.93
2018-09-14T16:13:48.362Z,10.17
2018-09-14T16:16:16.505Z,9.87
2018-09-14T16:18:44.689Z,7.37
2018-09-14T16:21:12.882Z,8.87
2018-09-14T16:23:41.027Z,7.40
2018-09-14T16:26:09.261Z,9.90
2018-09-14T16:28:37.319Z,8.90
2018-09-14T16:31:05.456Z,8.60
2018-09-14T16:33:33.591Z,8.43
2018-09-14T16:36:01.783Z,8.13
2018-09-14T16:38:30.473Z,8.30
2018-09-14T16:40:58.731Z,6.73
2018-09-14T16:43:26.934Z,6.63
2018-09-14T16:45:55.145Z,7.77
2018-09-14T16:48:23.596Z,7.57
2018-09-14T16:50:51.766Z,8.40
2018-09-14T16:53:19.931Z,8.43
2018-09-14T16:55:50.337Z,8.50
2018-09-14T16:58:18.473Z,7.83
2018-09-14T17:00:46.629Z,7.13
2018-09-14T17:03:37.097Z,8.00
2018-09-14T17:06:06.984Z,9.10
2018-09-14T17:08:36.312Z,8.60
2018-09-14T17:11:04.471Z,8.00
2018-09-14T17:13:32.734Z,7.90
2018-09-14T17:16:00.905Z,10.87
2018-09-14T17:18:29.017Z,10.20
2018-09-14T17:20:57.182Z,9.47
2018-09-14T17:23:25.323Z,9.40
2018-09-14T17:25:53.445Z,8.17
2018-09-14T17:28:21.617Z,8.60
2018-09-14T17:30:49.710Z,9.60
2018-09-14T17:33:17.840Z,8.10
2018-09-14T17:35:45.986Z,9.05
2018-09-14T17:38:14.210Z,8.60
2018-09-14T17:40:42.485Z,9.23
2018-09-14T17:43:10.620Z,9.55
2018-09-14T17:45:38.833Z,9.60
2018-09-14T17:48:07.154Z,9.65
2018-09-14T17:50:35.345Z,8.80
2018-09-14T17:53:03.540Z,10.40
2018-09-14T17:55:31.711Z,8.53
2018-09-14T17:57:59.870Z,9.73
2018-09-14T18:00:28.072Z,10.45
2018-09-14T18:02:56.284Z,10.23
2018-09-14T18:12:27.988Z,11.35
2018-09-14T18:14:56.223Z,9.58
2018-09-14T18:17:24.556Z,11.83
2018-09-14T18:19:52.834Z,10.00
2018-09-14T18:22:21.045Z,9.60
2018-09-14T18:24:49.185Z,9.85
2018-09-14T18:27:17.361Z,9.35
2018-09-14T18:29:45.963Z,8.33
2018-09-14T18:32:15.076Z,10.23
2018-09-14T18:34:43.463Z,8.55
2018-09-14T18:37:12.170Z,10.65
2018-09-14T18:39:40.698Z,11.05
2018-09-14T18:42:08.990Z,10.18
2018-09-14T18:44:37.275Z,11.38
2018-09-14T18:47:05.577Z,11.68
2018-09-14T18:49:33.888Z,11.55
2018-09-14T18:52:02.088Z,11.33
2018-09-14T18:54:30.330Z,11.18
2018-09-14T18:56:58.487Z,12.18
2018-09-14T18:59:26.684Z,12.82
2018-09-14T19:01:54.886Z,13.13
2018-09-14T19:04:23.108Z,11.90
2018-09-14T19:06:51.679Z,15.20
2018-09-14T19:09:19.828Z,13.72
2018-09-14T19:11:47.990Z,15.70
2018-09-14T19:14:16.193Z,12.78
2018-09-14T19:16:44.575Z,15.60
2018-09-14T19:19:12.843Z,14.03
2018-09-14T19:21:40.981Z,12.35
2018-09-14T19:24:09.213Z,15.18
2018-09-14T19:26:37.395Z,13.90
2018-09-14T19:29:05.612Z,14.50
2018-09-14T19:31:33.786Z,13.68
2018-09-14T19:34:01.949Z,14.00
2018-09-14T19:36:30.198Z,13.83
2018-09-14T19:38:58.484Z,12.95
2018-09-14T19:41:26.672Z,13.25
2018-09-14T19:43:54.959Z,12.35
2018-09-14T19:46:23.471Z,10.60
2018-09-14T19:48:51.924Z,12.90
2018-09-14T19:51:20.265Z,14.43
2018-09-14T19:53:48.466Z,13.55
2018-09-14T19:56:16.979Z,15.05
2018-09-14T19:58:45.128Z,11.80
2018-09-14T20:01:13.319Z,12.90
2018-09-14T20:03:41.468Z,10.10
2018-09-14T20:06:10.602Z,10.95
2018-09-14T20:08:38.672Z,9.83
2018-09-14T20:11:06.825Z,16.67
2018-09-14T20:13:34.981Z,12.93
2018-09-14T20:16:03.258Z,11.22
2018-09-14T20:18:31.506Z,13.10
2018-09-14T20:20:59.512Z,13.88
2018-09-14T20:23:27.645Z,15.98
2018-09-14T20:25:55.894Z,14.70
2018-09-14T20:28:24.846Z,12.15
2018-09-14T20:30:53.058Z,13.30
2018-09-14T20:33:21.224Z,12.43
2018-09-14T20:35:49.360Z,11.78
2018-09-14T20:38:17.521Z,12.03
2018-09-14T20:40:45.733Z,14.68
2018-09-14T20:43:13.827Z,14.18
2018-09-14T20:45:41.918Z,10.50
2018-09-14T20:48:10.118Z,14.00
2018-09-14T20:50:38.398Z,19.17
2018-09-14T20:53:06.548Z,22.45
2018-09-14T20:55:34.773Z,18.75
2018-09-14T20:58:03.019Z,15.48
2018-09-14T21:00:31.193Z,16.90
2018-09-14T21:02:59.383Z,14.45
2018-09-14T21:05:27.546Z,18.90
2018-09-14T21:07:55.752Z,14.38
2018-09-14T21:10:23.863Z,15.80
2018-09-14T21:12:52.020Z,16.35
2018-09-14T21:15:20.254Z,15.98
2018-09-14T21:19:17.625Z,16.82
2018-09-14T21:21:45.804Z,14.60
2018-09-14T21:24:13.918Z,16.23
2018-09-14T21:26:42.077Z,14.58
2018-09-14T21:29:10.306Z,16.17
2018-09-14T21:31:38.409Z,21.82
2018-09-14T21:34:06.511Z,22.27
2018-09-14T21:36:34.682Z,20.27
2018-09-14T21:39:02.858Z,20.92
2018-09-14T21:41:30.969Z,20.45
2018-09-14T21:43:59.158Z,20.85
2018-09-14T21:46:27.306Z,34.13
2018-09-14T21:48:55.507Z,27.98
2018-09-14T21:51:23.675Z,28.00
2018-09-14T21:53:51.878Z,22.52
2018-09-14T21:56:19.945Z,20.12
2018-09-14T21:58:48.097Z,18.60
2018-09-14T22:01:21.781Z,19.52
2018-09-14T22:03:49.944Z,23.32
2018-09-14T22:06:18.344Z,17.98
2018-09-14T22:08:46.528Z,19.30
2018-09-14T22:11:14.868Z,23.07
2018-09-14T22:13:43.093Z,22.25
2018-09-14T22:16:11.326Z,22.40
2018-09-14T22:18:39.449Z,17.80
2018-09-14T22:21:08.084Z,24.05
2018-09-14T22:23:36.217Z,19.80
2018-09-14T22:26:04.364Z,20.10
2018-09-14T22:28:32.648Z,19.60
2018-09-14T22:31:00.834Z,21.65
2018-09-14T22:33:28.980Z,20.40
2018-09-14T22:35:57.159Z,17.62
2018-09-14T22:38:25.336Z,20.62
2018-09-14T22:40:53.507Z,20.60
2018-09-14T22:43:21.762Z,18.25
2018-09-14T22:45:50.238Z,19.32
2018-09-14T22:48:18.401Z,18.73
2018-09-14T22:50:46.540Z,20.27
2018-09-14T22:53:14.747Z,18.15
2018-09-14T22:55:42.946Z,20.72
2018-09-14T22:58:11.101Z,15.72
2018-09-14T23:00:44.584Z,15.80
2018-09-14T23:03:12.771Z,15.63
2018-09-14T23:05:41.247Z,16.05
2018-09-14T23:08:09.509Z,15.58
2018-09-14T23:10:37.662Z,17.15
2018-09-14T23:13:05.859Z,15.38
2018-09-14T23:15:33.966Z,13.38
2018-09-14T23:18:02.153Z,14.45
2018-09-14T23:20:30.240Z,17.48
2018-09-14T23:22:58.358Z,16.05
2018-09-14T23:25:26.528Z,17.62
2018-09-14T23:27:54.615Z,16.23
2018-09-14T23:30:22.713Z,20.32
2018-09-14T23:32:50.824Z,16.93
2018-09-14T23:35:18.956Z,17.80
2018-09-14T23:37:47.169Z,17.80
2018-09-14T23:40:15.308Z,15.50
2018-09-14T23:42:43.461Z,17.07
2018-09-14T23:45:11.596Z,13.72
2018-09-14T23:47:39.850Z,16.20
2018-09-14T23:50:08.006Z,16.35
2018-09-14T23:52:36.151Z,15.70
2018-09-14T23:55:04.507Z,17.10
2018-09-14T23:57:32.607Z,13.62
